Time;durP1;ratioP1;P1;durP2;ratioP2;P2;SDS_P1;SDS_P2;PMS_P1;PMS_P2;Temp;Humidity;BMP_temperature;BMP_pressure;BME280_temperature;BME280_humidity;BME280_pressure;Samples;Min_cycle;Max_cycle;Signal;HPM_P1;HPM_P2
2022/05/26 00:00:00;;;;;;;6.65;3.85;;;14.40;99.90;;;;;;5016979;28;20225;-62
2022/05/26 00:02:27;;;;;;;6.80;3.70;;;14.30;99.90;;;;;;5003352;28;20229;-62
2022/05/26 00:04:54;;;;;;;4.68;3.85;;;14.30;99.90;;;;;;5008710;28;20681;-62
2022/05/26 00:07:21;;;;;;;5.70;3.88;;;14.30;99.90;;;;;;4984180;28;20214;-62
2022/05/26 00:09:49;;;;;;;4.20;3.80;;;14.60;99.90;;;;;;5005557;28;20230;-62
2022/05/26 00:12:16;;;;;;;5.53;3.50;;;14.40;99.90;;;;;;4994368;28;20210;-62
2022/05/26 00:14:44;;;;;;;7.43;4.82;;;14.40;99.90;;;;;;5013675;28;20226;-62
2022/05/26 00:17:11;;;;;;;8.63;4.72;;;14.60;99.90;;;;;;5012116;28;20204;-62
2022/05/26 00:19:38;;;;;;;5.57;4.50;;;14.40;99.90;;;;;;5012724;28;20757;-62
2022/05/26 00:22:05;;;;;;;6.63;4.47;;;14.40;99.90;;;;;;4983138;28;20965;-62
2022/05/26 00:24:32;;;;;;;8.00;4.82;;;14.40;99.90;;;;;;4999247;28;20954;-62
2022/05/26 00:27:00;;;;;;;6.28;4.28;;;14.40;99.90;;;;;;5009673;28;20571;-62
2022/05/26 00:29:27;;;;;;;6.88;4.82;;;14.40;99.90;;;;;;4997634;28;20208;-62
2022/05/26 00:31:54;;;;;;;7.05;4.65;;;14.40;99.90;;;;;;5005460;28;20198;-62
2022/05/26 00:34:21;;;;;;;6.15;4.85;;;14.40;99.90;;;;;;5012601;28;20202;-63
2022/05/26 00:36:48;;;;;;;8.13;5.20;;;14.40;99.90;;;;;;5001950;28;20197;-62
2022/05/26 00:39:17;;;;;;;6.07;4.80;;;14.40;99.90;;;;;;4982773;28;20225;-62
2022/05/26 00:41:46;;;;;;;7.15;4.82;;;14.40;99.90;;;;;;5010013;28;20633;-62
2022/05/26 00:44:17;;;;;;;9.43;5.03;;;14.40;99.90;;;;;;4994691;28;20403;-62
2022/05/26 00:46:51;;;;;;;9.52;4.80;;;14.50;99.90;;;;;;5009044;28;20197;-62
2022/05/26 00:49:33;;;;;;;6.00;4.45;;;14.40;99.90;;;;;;5015196;28;20564;-62
2022/05/26 00:52:00;;;;;;;6.88;5.05;;;14.40;99.90;;;;;;4997096;28;20206;-62
2022/05/26 00:54:27;;;;;;;6.28;4.57;;;14.40;99.90;;;;;;4982247;28;20750;-62
2022/05/26 00:56:58;;;;;;;9.43;5.13;;;14.30;99.90;;;;;;5008230;28;20198;-62
2022/05/26 00:59:41;;;;;;;7.03;5.45;;;14.40;99.90;;;;;;4986538;28;20235;-62
2022/05/26 01:02:08;;;;;;;7.72;4.90;;;14.40;99.90;;;;;;5008890;28;20202;-62
2022/05/26 01:04:43;;;;;;;12.15;5.80;;;14.50;99.90;;;;;;4995064;28;20206;-62
2022/05/26 01:07:14;;;;;;;6.20;4.93;;;14.50;99.90;;;;;;5001657;28;20216;-62
2022/05/26 01:09:41;;;;;;;9.05;5.75;;;14.50;99.90;;;;;;4981083;28;20241;-62
2022/05/26 01:12:08;;;;;;;8.60;4.97;;;14.50;99.90;;;;;;5013066;28;20669;-62
2022/05/26 01:14:42;;;;;;;9.07;5.18;;;14.40;99.90;;;;;;4998379;28;20234;-62
2022/05/26 01:17:26;;;;;;;9.63;5.35;;;14.40;99.90;;;;;;5011683;28;20663;-62
2022/05/26 01:20:30;;;;;;;10.25;5.72;;;14.40;99.90;;;;;;5004953;28;20221;-62
2022/05/26 01:23:27;;;;;;;9.90;5.10;;;14.20;99.90;;;;;;4978580;28;20708;-62
2022/05/26 01:26:23;;;;;;;6.53;5.32;;;14.50;99.90;;;;;;4994663;28;20206;-62
2022/05/26 01:29:41;;;;;;;7.95;4.85;;;14.50;99.90;;;;;;4994601;28;20209;-62
2022/05/26 01:32:16;;;;;;;6.47;5.00;;;14.50;99.90;;;;;;4986622;28;20270;-62
2022/05/26 01:34:53;;;;;;;7.97;4.70;;;14.50;99.90;;;;;;5011626;28;20201;-62
2022/05/26 01:37:29;;;;;;;14.45;5.13;;;14.50;99.90;;;;;;5013805;28;20201;-65
2022/05/26 01:40:01;;;;;;;6.32;4.65;;;14.50;99.90;;;;;;4988284;28;20225;-62
2022/05/26 01:42:38;;;;;;;10.95;5.45;;;14.50;99.90;;;;;;5007370;28;20218;-62
2022/05/26 01:45:14;;;;;;;5.38;4.63;;;14.50;99.90;;;;;;5008630;28;20198;-62
2022/05/26 01:47:50;;;;;;;9.27;5.18;;;14.50;99.90;;;;;;5011626;28;20216;-62
2022/05/26 01:50:25;;;;;;;7.28;5.60;;;14.50;99.90;;;;;;5011986;28;20209;-62
2022/05/26 01:53:03;;;;;;;6.63;5.30;;;14.50;99.90;;;;;;5011131;28;20202;-62
2022/05/26 01:55:36;;;;;;;9.20;5.70;;;14.50;99.90;;;;;;4992574;28;20216;-62
2022/05/26 01:58:11;;;;;;;7.15;5.20;;;14.30;99.90;;;;;;5013271;28;20201;-62
2022/05/26 02:00:38;;;;;;;7.07;5.85;;;14.50;99.90;;;;;;4998360;28;20229;-62
2022/05/26 02:03:11;;;;;;;8.73;6.25;;;14.50;99.90;;;;;;5003640;28;20205;-62
2022/05/26 02:05:42;;;;;;;10.05;6.28;;;14.50;99.90;;;;;;5014840;28;20611;-62
2022/05/26 02:08:15;;;;;;;8.98;5.68;;;14.50;99.90;;;;;;5013312;28;20202;-62
2022/05/26 02:10:47;;;;;;;9.65;6.15;;;14.50;99.90;;;;;;4987082;28;21025;-62
2022/05/26 02:13:19;;;;;;;9.77;5.72;;;14.50;99.90;;;;;;5011281;28;20206;-62
2022/05/26 02:15:49;;;;;;;9.02;6.28;;;14.50;99.90;;;;;;4994113;28;20265;-62
2022/05/26 02:18:22;;;;;;;9.07;5.93;;;14.50;99.90;;;;;;5009316;28;20202;-62
2022/05/26 02:20:54;;;;;;;10.63;5.65;;;14.40;99.90;;;;;;5013813;28;20249;-62
2022/05/26 02:23:27;;;;;;;12.10;5.90;;;14.50;99.90;;;;;;5015096;28;20202;-62
2022/05/26 02:25:55;;;;;;;7.22;5.93;;;14.50;99.90;;;;;;4997342;28;20225;-63
2022/05/26 02:28:22;;;;;;;9.40;5.82;;;14.50;99.90;;;;;;5006478;28;20241;-62
2022/05/26 02:30:50;;;;;;;10.23;5.57;;;14.50;99.90;;;;;;4990363;28;20206;-62
2022/05/26 02:33:19;;;;;;;7.90;5.68;;;14.50;99.90;;;;;;4996759;28;20660;-62
2022/05/26 02:35:48;;;;;;;10.43;5.68;;;14.50;99.90;;;;;;5011613;28;20751;-62
2022/05/26 02:38:18;;;;;;;10.13;6.07;;;14.50;99.90;;;;;;5017741;28;20206;-63
2022/05/26 02:40:46;;;;;;;9.68;6.03;;;14.60;99.90;;;;;;4994664;28;21018;-62
2022/05/26 02:43:19;;;;;;;9.82;6.15;;;14.50;99.90;;;;;;5019103;28;20187;-63
2022/05/26 02:46:00;;;;;;;8.38;6.10;;;15.10;99.90;;;;;;5000224;28;20210;-62
2022/05/26 02:48:52;;;;;;;9.13;5.43;;;14.50;99.90;;;;;;4997980;28;20194;-62
2022/05/26 02:51:29;;;;;;;14.90;6.38;;;14.50;99.90;;;;;;5013158;28;20214;-62
2022/05/26 02:54:05;;;;;;;6.55;5.70;;;14.50;99.90;;;;;;5014430;28;20675;-62
2022/05/26 02:56:40;;;;;;;8.82;5.65;;;14.90;99.90;;;;;;5004015;28;20202;-62
2022/05/26 02:59:15;;;;;;;12.60;5.80;;;14.50;99.90;;;;;;5017410;28;20232;-62
2022/05/26 03:01:49;;;;;;;11.80;6.70;;;14.60;99.90;;;;;;4988666;28;20224;-63
2022/05/26 03:04:20;;;;;;;7.72;5.72;;;14.50;99.90;;;;;;5002498;28;20947;-62
2022/05/26 03:06:50;;;;;;;7.32;5.78;;;14.70;99.90;;;;;;5002598;28;20240;-62
2022/05/26 03:09:19;;;;;;;14.15;5.90;;;14.50;99.90;;;;;;5021199;28;20204;-62
2022/05/26 03:11:49;;;;;;;9.18;5.50;;;14.20;99.90;;;;;;4986606;28;20210;-63
2022/05/26 03:14:16;;;;;;;11.38;5.43;;;14.40;99.90;;;;;;5007294;28;21194;-62
2022/05/26 03:16:43;;;;;;;10.60;5.40;;;14.80;99.90;;;;;;4996683;28;20548;-62
2022/05/26 03:19:10;;;;;;;9.10;5.50;;;16.80;99.90;;;;;;5002159;28;20217;-63
2022/05/26 03:21:39;;;;;;;10.20;5.78;;;14.50;99.90;;;;;;4993238;28;20198;-62
2022/05/26 03:24:07;;;;;;;8.32;4.93;;;14.60;99.90;;;;;;5017544;28;20229;-62
2022/05/26 03:26:34;;;;;;;10.00;5.97;;;14.40;99.90;;;;;;4999835;28;20217;-62
2022/05/26 03:29:01;;;;;;;13.05;5.50;;;14.40;99.90;;;;;;4995303;28;20221;-62
2022/05/26 03:31:28;;;;;;;9.13;5.70;;;14.50;99.90;;;;;;5009850;28;20890;-62
2022/05/26 03:42:12;;;;;;;12.65;5.65;;;14.40;99.90;;;;;;5002520;28;20205;-62
2022/05/26 03:44:40;;;;;;;12.95;6.25;;;14.40;99.90;;;;;;4992111;28;20210;-62
2022/05/26 03:47:07;;;;;;;11.05;5.35;;;14.50;99.90;;;;;;5012441;28;20233;-62
2022/05/26 03:49:34;;;;;;;11.07;5.70;;;14.50;99.90;;;;;;4993221;28;20272;-62
2022/05/26 03:52:02;;;;;;;11.48;5.60;;;14.50;99.90;;;;;;4998614;28;20208;-62
2022/05/26 03:54:30;;;;;;;11.35;5.85;;;14.50;99.90;;;;;;5013331;28;20208;-62
2022/05/26 03:56:57;;;;;;;11.80;5.07;;;14.50;99.90;;;;;;5001872;28;20822;-62
2022/05/26 03:59:23;;;;;;;9.43;5.65;;;14.50;99.90;;;;;;4994452;28;20248;-63
2022/05/26 04:01:51;;;;;;;9.52;5.45;;;14.30;99.90;;;;;;5011033;28;20202;-62
2022/05/26 04:04:18;;;;;;;8.02;5.55;;;14.50;99.90;;;;;;5002603;28;20214;-62
2022/05/26 04:06:44;;;;;;;13.88;5.35;;;14.50;99.90;;;;;;4992195;28;20206;-62
2022/05/26 04:09:13;;;;;;;12.57;5.72;;;14.50;99.90;;;;;;5014648;28;20202;-63
2022/05/26 04:11:39;;;;;;;8.38;5.05;;;14.50;99.90;;;;;;5013720;28;20202;-62
2022/05/26 04:14:07;;;;;;;12.90;5.35;;;14.40;99.90;;;;;;4981907;28;20230;-63
2022/05/26 04:16:34;;;;;;;10.13;5.22;;;14.50;99.90;;;;;;5015424;28;20678;-62
2022/05/26 04:19:01;;;;;;;10.80;5.97;;;14.70;99.90;;;;;;5005557;28;20198;-63
2022/05/26 04:21:28;;;;;;;16.27;5.63;;;14.50;99.90;;;;;;4987324;28;20229;-62
2022/05/26 04:23:54;;;;;;;13.23;6.00;;;14.40;99.90;;;;;;5012298;28;20217;-62
2022/05/26 04:26:23;;;;;;;8.93;4.95;;;14.60;99.90;;;;;;5014342;28;20198;-62
2022/05/26 04:28:49;;;;;;;12.23;5.47;;;14.40;99.90;;;;;;5002392;28;20217;-62
2022/05/26 04:31:17;;;;;;;8.13;4.80;;;14.30;99.90;;;;;;4992474;28;20210;-62
2022/05/26 04:33:45;;;;;;;12.82;5.15;;;14.40;99.90;;;;;;5015885;28;20773;-62
2022/05/26 04:36:12;;;;;;;11.68;4.72;;;14.50;99.90;;;;;;5000860;28;20968;-63
2022/05/26 04:38:39;;;;;;;14.65;5.55;;;;;;;;;;5000470;28;20213;-62
2022/05/26 04:41:07;;;;;;;8.75;4.75;;;14.50;99.90;;;;;;5001961;28;20233;-62
2022/05/26 04:43:36;;;;;;;11.55;5.07;;;14.60;99.90;;;;;;4999338;28;20777;-62
2022/05/26 04:46:03;;;;;;;16.77;5.30;;;15.40;99.90;;;;;;4980573;28;20679;-62
2022/05/26 04:48:30;;;;;;;10.18;4.57;;;14.40;99.90;;;;;;5010914;28;20367;-62
2022/05/26 04:50:56;;;;;;;15.68;5.00;;;14.50;99.90;;;;;;5003999;28;20979;-62
2022/05/26 04:53:24;;;;;;;9.88;5.07;;;14.60;99.90;;;;;;4996911;28;20305;-62
2022/05/26 04:55:54;;;;;;;14.05;4.78;;;14.50;99.90;;;;;;5007388;28;20199;-62
2022/05/26 04:58:22;;;;;;;13.90;4.90;;;14.60;99.90;;;;;;5000024;28;20211;-62
2022/05/26 05:00:50;;;;;;;17.40;5.13;;;14.90;99.90;;;;;;5007328;28;20703;-62
2022/05/26 05:03:17;;;;;;;9.43;4.90;;;13.80;99.90;;;;;;4982141;28;20221;-62
2022/05/26 05:05:44;;;;;;;14.93;5.78;;;14.50;99.90;;;;;;5012524;28;20207;-62
2022/05/26 05:08:11;;;;;;;8.63;5.15;;;14.70;99.90;;;;;;4995984;28;20203;-62
2022/05/26 05:10:38;;;;;;;10.93;4.80;;;14.70;99.90;;;;;;5010561;28;20904;-62
2022/05/26 05:13:05;;;;;;;13.15;5.25;;;14.90;99.90;;;;;;5009206;28;20198;-62
2022/05/26 05:15:38;;;;;;;18.17;5.82;;;14.80;99.90;;;;;;5000444;28;20240;-62
2022/05/26 05:18:07;;;;;;;17.15;6.47;;;14.90;99.90;;;;;;4991037;28;20206;-62
2022/05/26 05:20:35;;;;;;;23.58;6.75;;;14.80;99.90;;;;;;5004644;28;20232;-62
2022/05/26 05:23:06;;;;;;;9.68;4.72;;;14.70;99.90;;;;;;5001489;28;20199;-63
2022/05/26 05:25:37;;;;;;;18.42;5.93;;;14.80;99.90;;;;;;5018317;28;20905;-62
2022/05/26 05:28:08;;;;;;;15.95;6.03;;;14.80;99.90;;;;;;5014087;28;20194;-62
2022/05/26 05:30:39;;;;;;;13.35;5.53;;;14.80;99.90;;;;;;5000709;28;20249;-62
2022/05/26 05:33:11;;;;;;;18.60;5.15;;;12.50;99.90;;;;;;4992916;28;20208;-62
2022/05/26 05:35:42;;;;;;;7.85;4.45;;;14.90;99.90;;;;;;5003350;28;20209;-62
2022/05/26 05:38:09;;;;;;;11.18;4.82;;;14.90;99.90;;;;;;5003788;28;20202;-62
2022/05/26 05:40:36;;;;;;;21.45;5.40;;;15.00;99.90;;;;;;5019697;28;20229;-64
2022/05/26 05:43:04;;;;;;;10.10;4.93;;;14.80;99.90;;;;;;5012923;28;20895;-62
2022/05/26 05:45:31;;;;;;;10.95;4.38;;;14.70;99.90;;;;;;5017464;28;20194;-62
2022/05/26 05:47:58;;;;;;;18.75;5.00;;;14.90;99.90;;;;;;5001354;28;20212;-62
2022/05/26 05:50:26;;;;;;;14.38;3.60;;;14.90;99.90;;;;;;5002752;28;20218;-62
2022/05/26 05:52:53;;;;;;;10.32;4.70;;;14.90;99.90;;;;;;4989677;28;20225;-62
2022/05/26 05:55:20;;;;;;;13.90;4.22;;;14.90;99.90;;;;;;5011319;28;21124;-62
2022/05/26 05:57:47;;;;;;;15.35;3.65;;;14.90;99.90;;;;;;5000598;28;20213;-63
2022/05/26 06:00:14;;;;;;;13.90;3.20;;;15.00;99.90;;;;;;5010054;28;20222;-62
2022/05/26 06:02:41;;;;;;;17.67;3.17;;;15.50;99.90;;;;;;5018528;28;20279;-62
2022/05/26 06:05:10;;;;;;;10.13;3.30;;;15.10;99.90;;;;;;4997285;28;20206;-62
2022/05/26 06:07:40;;;;;;;12.80;3.90;;;15.00;99.90;;;;;;5000735;28;20202;-63
2022/05/26 06:10:08;;;;;;;11.45;3.15;;;15.40;99.90;;;;;;5002730;28;20288;-62
2022/05/26 06:12:35;;;;;;;7.80;2.67;;;15.20;99.90;;;;;;4999755;28;20257;-62
2022/05/26 06:15:02;;;;;;;10.13;2.90;;;15.20;99.90;;;;;;4995487;28;20222;-62
2022/05/26 06:17:29;;;;;;;8.20;2.70;;;15.30;99.90;;;;;;5015201;28;20202;-62
2022/05/26 06:19:57;;;;;;;8.48;2.95;;;;;;;;;;4990353;28;20198;-63
2022/05/26 06:22:25;;;;;;;5.35;2.08;;;15.20;99.90;;;;;;5010773;28;20261;-62
2022/05/26 06:24:53;;;;;;;4.15;1.90;;;15.10;99.90;;;;;;4985171;28;20210;-61
2022/05/26 06:30:10;;;;;;;4.72;1.75;;;15.00;99.90;;;;;;5005173;28;20209;-62
2022/05/26 06:38:15;;;;;;;6.90;1.80;;;14.90;99.90;;;;;;5013099;28;20314;-62
2022/05/26 06:40:45;;;;;;;9.65;2.20;;;15.10;99.90;;;;;;4987535;28;20230;-62
2022/05/26 06:43:14;;;;;;;8.48;1.98;;;15.20;99.90;;;;;;5012859;28;20198;-62
2022/05/26 06:45:42;;;;;;;12.70;2.13;;;15.40;99.90;;;;;;4994992;28;20226;-62
2022/05/26 06:48:09;;;;;;;14.98;2.22;;;15.30;99.90;;;;;;5011795;28;20202;-62
2022/05/26 06:50:36;;;;;;;9.00;2.13;;;15.30;99.90;;;;;;4992590;28;20216;-62
2022/05/26 06:53:03;;;;;;;11.98;2.40;;;15.30;99.90;;;;;;5002321;28;20213;-62
2022/05/26 06:55:30;;;;;;;5.90;1.83;;;15.30;99.90;;;;;;4983011;28;20230;-63
2022/05/26 06:57:58;;;;;;;7.22;2.08;;;15.30;99.90;;;;;;5007559;28;20198;-62
2022/05/26 07:00:26;;;;;;;5.65;1.55;;;15.40;99.90;;;;;;5000733;28;20624;-62
2022/05/26 07:02:53;;;;;;;6.50;1.50;;;15.20;99.90;;;;;;5010954;28;20199;-62
2022/05/26 07:05:20;;;;;;;6.80;1.65;;;15.30;99.90;;;;;;5001993;28;20267;-63
2022/05/26 07:07:47;;;;;;;7.35;1.80;;;15.40;99.90;;;;;;4990284;28;20210;-62
2022/05/26 07:10:14;;;;;;;10.30;2.33;;;15.40;99.90;;;;;;5008076;28;20299;-62
2022/05/26 07:12:42;;;;;;;7.63;1.73;;;16.60;99.90;;;;;;4998429;28;20202;-62
2022/05/26 07:15:12;;;;;;;8.95;1.75;;;15.30;99.90;;;;;;5019589;28;20249;-62
2022/05/26 07:17:38;;;;;;;5.10;1.67;;;15.40;99.90;;;;;;5016710;28;20222;-62
2022/05/26 07:20:07;;;;;;;4.18;1.13;;;15.20;99.90;;;;;;4985402;28;20225;-62
2022/05/26 07:22:34;;;;;;;8.57;1.67;;;15.50;99.90;;;;;;4989240;28;20238;-63
2022/05/26 07:25:00;;;;;;;3.67;1.17;;;15.50;99.90;;;;;;5013734;28;20700;-62
2022/05/26 07:27:27;;;;;;;3.92;1.50;;;15.80;99.90;;;;;;4986696;28;20206;-63
2022/05/26 07:29:54;;;;;;;4.90;1.35;;;15.50;99.90;;;;;;5015668;28;20951;-62
2022/05/26 07:32:23;;;;;;;3.28;1.20;;;15.50;99.90;;;;;;5001264;28;20205;-62
2022/05/26 07:34:50;;;;;;;2.95;0.90;;;15.70;99.90;;;;;;5010139;28;20664;-63
2022/05/26 07:42:46;;;;;;;5.05;2.05;;;15.70;99.90;;;;;;4988869;28;20878;-63
2022/05/26 07:45:14;;;;;;;6.70;1.13;;;15.90;99.90;;;;;;4988613;28;20206;-63
2022/05/26 07:47:42;;;;;;;4.20;1.00;;;16.00;99.90;;;;;;4988419;28;20258;-63
2022/05/26 07:50:19;;;;;;;4.32;1.02;;;15.90;99.90;;;;;;5006433;28;20222;-62
2022/05/26 07:52:47;;;;;;;4.20;1.20;;;15.90;99.90;;;;;;5004971;28;20720;-60
2022/05/26 07:55:13;;;;;;;3.90;1.10;;;15.90;99.90;;;;;;4993270;28;20249;-61
2022/05/26 07:57:40;;;;;;;3.83;1.17;;;15.90;99.90;;;;;;4972217;28;20305;-61
2022/05/26 08:00:08;;;;;;;3.38;0.80;;;15.60;99.90;;;;;;5001391;28;20360;-60
2022/05/26 08:02:35;;;;;;;2.83;1.17;;;15.70;99.90;;;;;;4995699;28;20856;-61
2022/05/26 08:05:05;;;;;;;4.22;1.10;;;16.10;99.90;;;;;;5008126;28;20208;-61
2022/05/26 08:07:32;;;;;;;5.47;1.20;;;15.90;99.90;;;;;;5007705;28;20619;-61
2022/05/26 08:09:58;;;;;;;8.00;0.90;;;15.80;99.90;;;;;;4988650;28;20232;-61
2022/05/26 08:12:26;;;;;;;4.00;1.17;;;15.90;99.90;;;;;;4997373;28;20888;-61
2022/05/26 08:14:53;;;;;;;2.95;1.10;;;16.00;99.90;;;;;;4972628;28;20714;-61
2022/05/26 08:17:22;;;;;;;3.92;1.60;;;16.00;99.90;;;;;;4989739;28;20217;-61
2022/05/26 08:19:49;;;;;;;6.63;0.98;;;15.90;99.90;;;;;;4997113;28;20224;-61
2022/05/26 08:22:19;;;;;;;3.80;0.93;;;16.00;99.90;;;;;;4986749;28;21045;-61
2022/05/26 08:24:50;;;;;;;1.73;0.63;;;;;;;;;;5003147;28;20213;-61
2022/05/26 08:27:17;;;;;;;2.67;0.70;;;18.40;99.90;;;;;;4982589;28;20784;-61
2022/05/26 08:29:44;;;;;;;2.40;1.05;;;15.50;99.90;;;;;;4979165;28;20276;-64
2022/05/26 08:32:11;;;;;;;3.22;1.20;;;;;;;;;;4988564;28;20221;-61
2022/05/26 08:34:38;;;;;;;1.30;0.60;;;16.30;99.90;;;;;;4983143;28;20217;-61
2022/05/26 08:37:05;;;;;;;5.57;1.00;;;;;;;;;;5001443;28;20226;-61
2022/05/26 08:39:34;;;;;;;5.57;1.15;;;16.50;99.90;;;;;;4974879;23;20235;-62
2022/05/26 08:42:01;;;;;;;7.45;1.15;;;16.40;99.90;;;;;;4948163;28;21013;-62
2022/05/26 08:44:31;;;;;;;6.28;1.08;;;16.50;99.90;;;;;;4933408;28;20238;-63
2022/05/26 08:47:02;;;;;;;4.45;1.20;;;16.50;99.90;;;;;;4949210;28;20229;-62
2022/05/26 08:49:36;;;;;;;2.92;0.80;;;16.40;99.90;;;;;;4952356;28;20625;-62
2022/05/26 08:52:09;;;;;;;4.15;1.20;;;16.50;99.90;;;;;;4964446;28;20290;-62
2022/05/26 08:54:42;;;;;;;2.25;0.77;;;16.70;99.90;;;;;;4957004;28;20318;-62
2022/05/26 08:57:14;;;;;;;3.38;1.10;;;16.60;99.90;;;;;;4953031;28;20234;-62
2022/05/26 08:59:44;;;;;;;0.80;0.75;;;16.50;99.90;;;;;;4943905;28;20202;-63
2022/05/26 09:02:25;;;;;;;3.72;0.95;;;16.50;99.90;;;;;;4963615;28;20254;-62
2022/05/26 09:04:53;;;;;;;2.20;0.93;;;16.50;99.90;;;;;;4934605;28;20215;-62
2022/05/26 09:13:02;;;;;;;3.90;0.95;;;16.80;99.90;;;;;;4957234;28;20490;-62
2022/05/26 09:15:31;;;;;;;3.92;1.13;;;16.70;99.90;;;;;;4948160;28;20712;-62
2022/05/26 09:17:59;;;;;;;4.38;1.25;;;;;;;;;;4960842;28;20735;-62
2022/05/26 09:20:35;;;;;;;4.68;0.90;;;17.00;99.90;;;;;;4958502;28;20314;-62
2022/05/26 09:23:13;;;;;;;5.25;1.17;;;16.70;99.90;;;;;;4980379;28;20226;-62
2022/05/26 09:25:47;;;;;;;3.92;1.50;;;16.60;99.90;;;;;;4963206;28;20394;-62
2022/05/26 09:28:26;;;;;;;2.83;1.17;;;16.60;99.90;;;;;;4947008;28;21248;-63
2022/05/26 09:30:53;;;;;;;2.53;1.00;;;16.50;99.90;;;;;;4956218;28;20229;-62
2022/05/26 09:33:27;;;;;;;5.00;0.82;;;16.60;99.90;;;;;;4946936;28;20215;-62
2022/05/26 09:35:54;;;;;;;4.70;0.77;;;16.80;99.90;;;;;;4957385;28;20237;-62
2022/05/26 09:38:32;;;;;;;1.98;0.98;;;16.60;99.90;;;;;;4950333;28;20227;-62
2022/05/26 09:41:07;;;;;;;2.63;0.80;;;16.60;99.90;;;;;;4946834;28;20231;-62
2022/05/26 09:43:34;;;;;;;1.33;0.88;;;16.80;99.90;;;;;;4962337;28;20215;-63
2022/05/26 09:46:14;;;;;;;2.08;0.98;;;17.20;99.90;;;;;;4924002;28;20595;-62
2022/05/26 09:48:41;;;;;;;2.88;1.10;;;16.80;99.90;;;;;;4952162;28;20235;-62
2022/05/26 09:51:13;;;;;;;1.77;0.93;;;16.90;99.90;;;;;;4957181;28;20223;-63
2022/05/26 09:53:45;;;;;;;5.20;1.00;;;17.30;99.90;;;;;;4937295;28;20231;-63
2022/05/26 09:56:28;;;;;;;3.13;1.10;;;17.40;99.90;;;;;;5002749;23;21010;-62
2022/05/26 09:58:55;;;;;;;1.83;1.10;;;16.00;99.90;;;;;;5008091;28;20949;-62
2022/05/26 10:01:38;;;;;;;2.47;0.90;;;17.30;99.90;;;;;;4976716;28;20231;-62
2022/05/26 10:04:22;;;;;;;7.97;1.40;;;17.70;99.90;;;;;;4987641;28;20217;-62
2022/05/26 10:06:56;;;;;;;1.67;0.82;;;17.50;99.90;;;;;;4994090;28;20229;-62
2022/05/26 10:09:31;;;;;;;1.63;0.80;;;17.50;99.90;;;;;;5002298;28;20245;-62
2022/05/26 10:12:08;;;;;;;6.65;1.05;;;17.60;99.90;;;;;;4990590;28;20240;-61
2022/05/26 10:15:03;;;;;;;6.10;1.25;;;17.60;99.90;;;;;;4991704;28;20226;-62
2022/05/26 10:17:43;;;;;;;6.78;1.00;;;17.50;99.90;;;;;;5001338;28;20995;-62
2022/05/26 10:20:22;;;;;;;2.42;0.90;;;17.50;99.90;;;;;;4978303;28;20230;-63
2022/05/26 10:23:02;;;;;;;3.72;0.95;;;17.30;99.90;;;;;;4992427;28;21131;-63
2022/05/26 10:25:35;;;;;;;1.80;0.80;;;17.40;99.90;;;;;;5010241;28;20203;-63
2022/05/26 10:28:32;;;;;;;3.35;0.70;;;17.70;99.90;;;;;;5004626;28;20299;-62
2022/05/26 10:31:11;;;;;;;5.53;1.17;;;17.70;99.90;;;;;;4987724;28;20232;-63
2022/05/26 10:33:58;;;;;;;4.63;1.08;;;18.00;99.90;;;;;;4991066;28;20234;-63
2022/05/26 10:36:36;;;;;;;3.33;0.70;;;18.20;99.90;;;;;;4996091;28;20760;-62
2022/05/26 10:39:09;;;;;;;3.03;1.58;;;18.10;99.90;;;;;;5000346;28;20207;-62
2022/05/26 10:41:40;;;;;;;2.60;0.93;;;18.20;99.90;;;;;;4996146;28;20959;-63
2022/05/26 10:44:16;;;;;;;2.63;0.90;;;18.00;99.90;;;;;;5013057;28;20301;-62
2022/05/26 10:46:51;;;;;;;3.15;0.90;;;17.90;99.90;;;;;;4991130;28;20214;-62
2022/05/26 10:49:22;;;;;;;8.40;1.42;;;17.70;99.90;;;;;;4995455;28;20217;-64
2022/05/26 10:51:55;;;;;;;4.15;1.00;;;17.60;99.90;;;;;;4997823;28;20206;-62
2022/05/26 10:54:32;;;;;;;4.85;1.38;;;17.60;99.90;;;;;;5003425;28;20675;-62
2022/05/26 10:57:04;;;;;;;1.08;0.70;;;17.50;99.90;;;;;;4985696;28;20206;-63
2022/05/26 10:59:37;;;;;;;1.70;0.77;;;17.80;99.90;;;;;;5013427;28;20257;-62
2022/05/26 11:02:10;;;;;;;2.30;0.88;;;17.80;99.90;;;;;;4980827;28;20226;-62
2022/05/26 11:04:46;;;;;;;5.50;1.20;;;18.90;99.90;;;;;;4986519;28;20916;-62
2022/05/26 11:07:18;;;;;;;1.75;0.68;;;17.80;99.90;;;;;;4996416;28;20246;-62
2022/05/26 11:09:51;;;;;;;3.25;1.00;;;18.00;99.90;;;;;;4995798;28;20722;-63
2022/05/26 11:12:25;;;;;;;3.50;0.90;;;18.00;99.90;;;;;;5002445;28;20586;-62
2022/05/26 11:17:45;;;;;;;3.80;1.05;;;17.70;99.90;;;;;;4982259;28;20224;-62
2022/05/26 11:20:20;;;;;;;2.10;0.80;;;17.90;99.90;;;;;;4997772;28;20251;-63
2022/05/26 11:22:48;;;;;;;2.00;1.10;;;17.90;99.90;;;;;;4996587;28;21160;-63
2022/05/26 11:25:17;;;;;;;3.35;0.75;;;17.90;99.90;;;;;;4997328;28;20663;-62
2022/05/26 11:27:47;;;;;;;5.90;1.10;;;;;;;;;;4996628;28;20233;-62
2022/05/26 11:36:09;;;;;;;1.95;0.73;;;18.10;99.90;;;;;;4987745;28;20326;-63
2022/05/26 11:38:41;;;;;;;1.52;1.08;;;18.00;99.90;;;;;;4994264;28;20221;-63
2022/05/26 11:41:12;;;;;;;2.80;0.93;;;17.80;99.90;;;;;;4996058;28;20233;-63
2022/05/26 11:43:44;;;;;;;3.35;1.00;;;18.00;99.90;;;;;;4994231;28;20305;-63
2022/05/26 11:46:33;;;;;;;5.65;1.13;;;17.90;99.90;;;;;;5004584;28;20222;-63
2022/05/26 11:49:01;;;;;;;2.95;0.80;;;17.80;99.90;;;;;;4989858;28;20206;-63
2022/05/26 11:51:35;;;;;;;2.30;0.65;;;17.80;99.90;;;;;;4995222;28;20261;-63
2022/05/26 11:54:02;;;;;;;4.07;1.02;;;17.60;99.90;;;;;;4990988;28;20234;-64
2022/05/26 11:56:49;;;;;;;1.85;0.85;;;16.20;99.90;;;;;;5008987;28;20233;-63
2022/05/26 11:59:46;;;;;;;0.93;0.73;;;17.80;99.90;;;;;;4996596;28;20650;-63
2022/05/26 12:02:32;;;;;;;2.17;1.02;;;17.90;99.90;;;;;;4988096;28;21019;-63
2022/05/26 12:05:32;;;;;;;2.00;1.00;;;17.60;99.90;;;;;;4987116;28;20210;-63
2022/05/26 12:08:04;;;;;;;3.15;0.88;;;17.40;99.90;;;;;;4979387;28;20199;-63
2022/05/26 12:10:40;;;;;;;3.13;0.80;;;17.20;99.90;;;;;;4998566;28;20210;-63
2022/05/26 12:13:39;;;;;;;4.63;1.10;;;17.30;99.90;;;;;;5002179;28;20213;-63
2022/05/26 12:16:28;;;;;;;2.90;0.77;;;17.50;99.90;;;;;;4936792;28;21644;-63
2022/05/26 12:18:58;;;;;;;3.92;0.90;;;17.90;99.90;;;;;;4986013;28;20210;-63
2022/05/26 12:21:48;;;;;;;2.22;0.80;;;17.90;99.90;;;;;;4991770;28;20222;-62
2022/05/26 12:24:52;;;;;;;4.03;0.70;;;18.20;99.90;;;;;;4983994;28;20325;-62
2022/05/26 12:27:57;;;;;;;2.05;0.80;;;17.90;99.90;;;;;;5005201;28;20202;-62
2022/05/26 12:30:49;;;;;;;3.03;1.00;;;18.10;99.90;;;;;;4996960;28;20224;-62
2022/05/26 12:33:30;;;;;;;3.85;1.00;;;18.40;99.90;;;;;;5002777;28;20198;-63
2022/05/26 12:36:03;;;;;;;4.10;1.25;;;18.40;99.90;;;;;;4991108;28;20872;-62
2022/05/26 12:38:39;;;;;;;2.38;0.70;;;18.40;99.90;;;;;;4990687;28;20229;-63
2022/05/26 12:41:15;;;;;;;5.22;1.10;;;18.20;99.90;;;;;;4981298;28;20750;-62
2022/05/26 12:43:56;;;;;;;3.50;0.88;;;18.00;99.90;;;;;;5003666;28;20233;-62
2022/05/26 12:46:50;;;;;;;1.67;1.23;;;17.80;99.90;;;;;;4988528;28;20230;-63
2022/05/26 12:49:32;;;;;;;3.30;1.00;;;17.60;99.90;;;;;;4990713;28;20194;-63
2022/05/26 12:52:11;;;;;;;3.67;0.90;;;17.60;99.90;;;;;;4997282;28;20602;-63
2022/05/26 12:54:48;;;;;;;2.88;1.02;;;17.50;99.90;;;;;;4987338;28;20251;-62
2022/05/26 12:57:20;;;;;;;1.08;0.80;;;17.50;99.90;;;;;;5003323;28;20234;-62
2022/05/26 12:59:47;;;;;;;5.50;1.70;;;17.50;99.90;;;;;;4998073;28;20209;-62
2022/05/26 13:02:16;;;;;;;2.70;0.80;;;17.60;99.90;;;;;;4995390;28;20306;-62
2022/05/26 13:04:44;;;;;;;0.88;0.55;;;17.80;99.90;;;;;;4992742;28;20218;-62
2022/05/26 13:07:16;;;;;;;3.28;0.82;;;17.90;99.90;;;;;;4962256;28;20226;-63
2022/05/26 13:09:44;;;;;;;1.48;0.70;;;18.00;99.90;;;;;;5002907;28;20309;-62
2022/05/26 13:12:18;;;;;;;2.83;0.77;;;17.90;99.90;;;;;;4981492;28;20226;-62
2022/05/26 13:14:48;;;;;;;2.53;0.82;;;17.80;99.90;;;;;;5011476;28;20230;-63
2022/05/26 13:17:19;;;;;;;4.03;0.90;;;17.80;99.90;;;;;;4981449;28;20214;-63
2022/05/26 13:19:47;;;;;;;5.28;0.90;;;17.70;99.90;;;;;;4995944;28;23274;-63
2022/05/26 13:22:18;;;;;;;3.83;1.10;;;17.60;99.90;;;;;;4976061;28;20226;-62
2022/05/26 13:24:54;;;;;;;3.25;1.00;;;17.50;99.90;;;;;;4988808;28;20198;-63
2022/05/26 13:27:22;;;;;;;2.28;0.70;;;17.50;99.90;;;;;;4993212;28;20233;-62
2022/05/26 13:29:51;;;;;;;3.05;1.00;;;17.40;99.90;;;;;;4993257;28;20596;-63
2022/05/26 13:35:16;;;;;;;3.95;1.00;;;18.20;99.90;;;;;;4993565;28;20213;-62
2022/05/26 13:37:44;;;;;;;0.93;0.80;;;17.20;99.90;;;;;;4983331;28;20202;-62
2022/05/26 13:40:14;;;;;;;6.90;1.73;;;17.20;99.90;;;;;;4990188;28;20249;-62
2022/05/26 13:42:45;;;;;;;3.30;1.73;;;17.10;99.90;;;;;;4999730;28;20234;-62
2022/05/26 13:45:21;;;;;;;3.58;1.27;;;18.80;99.90;;;;;;5001315;28;21119;-62
2022/05/26 13:47:49;;;;;;;1.27;1.05;;;17.10;99.90;;;;;;5002417;28;20259;-62